sensor_id;sensor_type;location;lat;lon;timestamp;P1;durP1;ratioP1;P2;durP2;ratioP2
53881;SDS011;39794;55.782;37.452;2023-04-12T00:01:10;32.35;;;17.08;;
53881;SDS011;39794;55.782;37.452;2023-04-12T00:03:40;32.72;;;16.80;;
53881;SDS011;39794;55.782;37.452;2023-04-12T00:06:09;29.05;;;15.85;;
53881;SDS011;39794;55.782;37.452;2023-04-12T00:08:37;28.30;;;17.50;;
53881;SDS011;39794;55.782;37.452;2023-04-12T00:11:08;28.13;;;17.08;;
53881;SDS011;39794;55.782;37.452;2023-04-12T00:13:38;28.80;;;17.58;;
53881;SDS011;39794;55.782;37.452;2023-04-12T00:16:07;29.80;;;17.27;;
53881;SDS011;39794;55.782;37.452;2023-04-12T00:18:36;31.00;;;17.90;;
53881;SDS011;39794;55.782;37.452;2023-04-12T00:21:06;35.05;;;18.00;;
53881;SDS011;39794;55.782;37.452;2023-04-12T00:23:36;33.10;;;18.17;;
53881;SDS011;39794;55.782;37.452;2023-04-12T00:26:05;31.88;;;16.67;;
53881;SDS011;39794;55.782;37.452;2023-04-12T00:28:34;30.25;;;18.58;;
53881;SDS011;39794;55.782;37.452;2023-04-12T00:31:03;32.40;;;18.25;;
53881;SDS011;39794;55.782;37.452;2023-04-12T00:33:32;30.60;;;17.25;;
53881;SDS011;39794;55.782;37.452;2023-04-12T00:36:01;28.42;;;17.65;;
53881;SDS011;39794;55.782;37.452;2023-04-12T00:38:31;32.38;;;17.40;;
53881;SDS011;39794;55.782;37.452;2023-04-12T00:41:02;36.45;;;17.58;;
53881;SDS011;39794;55.782;37.452;2023-04-12T00:43:32;31.20;;;16.83;;
53881;SDS011;39794;55.782;37.452;2023-04-12T00:46:03;33.33;;;17.52;;
53881;SDS011;39794;55.782;37.452;2023-04-12T00:48:31;34.55;;;17.88;;
53881;SDS011;39794;55.782;37.452;2023-04-12T00:51:00;30.95;;;17.23;;
53881;SDS011;39794;55.782;37.452;2023-04-12T00:53:29;28.20;;;16.65;;
53881;SDS011;39794;55.782;37.452;2023-04-12T00:56:00;31.35;;;17.90;;
53881;SDS011;39794;55.782;37.452;2023-04-12T00:58:29;32.25;;;17.73;;
53881;SDS011;39794;55.782;37.452;2023-04-12T01:00:58;31.20;;;17.85;;
53881;SDS011;39794;55.782;37.452;2023-04-12T01:03:27;35.67;;;17.25;;
53881;SDS011;39794;55.782;37.452;2023-04-12T01:06:03;35.72;;;16.85;;
53881;SDS011;39794;55.782;37.452;2023-04-12T01:08:46;30.10;;;17.48;;
53881;SDS011;39794;55.782;37.452;2023-04-12T01:11:24;31.58;;;17.67;;
53881;SDS011;39794;55.782;37.452;2023-04-12T01:13:58;29.60;;;17.58;;
53881;SDS011;39794;55.782;37.452;2023-04-12T01:16:35;32.42;;;18.48;;
53881;SDS011;39794;55.782;37.452;2023-04-12T01:19:11;29.08;;;17.45;;
53881;SDS011;39794;55.782;37.452;2023-04-12T01:21:51;27.88;;;17.25;;
53881;SDS011;39794;55.782;37.452;2023-04-12T01:24:27;33.97;;;16.10;;
53881;SDS011;39794;55.782;37.452;2023-04-12T01:27:01;30.30;;;17.00;;
53881;SDS011;39794;55.782;37.452;2023-04-12T01:29:31;29.27;;;15.77;;
53881;SDS011;39794;55.782;37.452;2023-04-12T01:32:00;32.25;;;17.27;;
53881;SDS011;39794;55.782;37.452;2023-04-12T01:34:31;29.95;;;16.52;;
53881;SDS011;39794;55.782;37.452;2023-04-12T01:37:01;29.92;;;15.98;;
53881;SDS011;39794;55.782;37.452;2023-04-12T01:39:30;30.20;;;16.33;;
53881;SDS011;39794;55.782;37.452;2023-04-12T01:42:01;30.00;;;16.58;;
53881;SDS011;39794;55.782;37.452;2023-04-12T01:44:31;39.95;;;18.30;;
53881;SDS011;39794;55.782;37.452;2023-04-12T01:46:59;31.05;;;17.23;;
53881;SDS011;39794;55.782;37.452;2023-04-12T01:49:29;31.42;;;17.73;;
53881;SDS011;39794;55.782;37.452;2023-04-12T01:52:06;28.42;;;17.90;;
53881;SDS011;39794;55.782;37.452;2023-04-12T01:54:37;28.60;;;17.02;;
53881;SDS011;39794;55.782;37.452;2023-04-12T01:57:07;36.97;;;17.95;;
53881;SDS011;39794;55.782;37.452;2023-04-12T01:59:39;31.02;;;17.63;;
53881;SDS011;39794;55.782;37.452;2023-04-12T02:02:08;33.47;;;18.70;;
53881;SDS011;39794;55.782;37.452;2023-04-12T02:04:41;31.63;;;18.52;;
53881;SDS011;39794;55.782;37.452;2023-04-12T02:07:10;29.10;;;18.58;;
53881;SDS011;39794;55.782;37.452;2023-04-12T02:09:40;35.55;;;19.05;;
53881;SDS011;39794;55.782;37.452;2023-04-12T02:12:08;34.35;;;19.20;;
53881;SDS011;39794;55.782;37.452;2023-04-12T02:14:43;32.30;;;18.50;;
53881;SDS011;39794;55.782;37.452;2023-04-12T02:17:12;30.15;;;18.83;;
53881;SDS011;39794;55.782;37.452;2023-04-12T02:19:41;30.50;;;18.13;;
53881;SDS011;39794;55.782;37.452;2023-04-12T02:22:10;30.63;;;17.08;;
53881;SDS011;39794;55.782;37.452;2023-04-12T02:24:41;30.00;;;15.75;;
53881;SDS011;39794;55.782;37.452;2023-04-12T02:27:10;33.25;;;16.88;;
53881;SDS011;39794;55.782;37.452;2023-04-12T02:29:39;33.13;;;16.48;;
53881;SDS011;39794;55.782;37.452;2023-04-12T02:32:09;30.10;;;16.95;;
53881;SDS011;39794;55.782;37.452;2023-04-12T02:34:39;30.73;;;15.13;;
53881;SDS011;39794;55.782;37.452;2023-04-12T02:37:14;39.80;;;17.08;;
53881;SDS011;39794;55.782;37.452;2023-04-12T02:39:43;38.30;;;17.05;;
53881;SDS011;39794;55.782;37.452;2023-04-12T02:42:13;37.22;;;16.27;;
53881;SDS011;39794;55.782;37.452;2023-04-12T02:44:42;36.92;;;18.05;;
53881;SDS011;39794;55.782;37.452;2023-04-12T02:47:15;31.70;;;17.23;;
53881;SDS011;39794;55.782;37.452;2023-04-12T02:49:47;35.05;;;16.98;;
53881;SDS011;39794;55.782;37.452;2023-04-12T02:52:17;34.70;;;17.73;;
53881;SDS011;39794;55.782;37.452;2023-04-12T02:54:59;30.50;;;16.63;;
53881;SDS011;39794;55.782;37.452;2023-04-12T02:57:28;31.55;;;17.88;;
53881;SDS011;39794;55.782;37.452;2023-04-12T02:59:57;37.08;;;17.02;;
53881;SDS011;39794;55.782;37.452;2023-04-12T03:02:38;40.35;;;16.70;;
53881;SDS011;39794;55.782;37.452;2023-04-12T03:05:13;46.60;;;18.05;;
53881;SDS011;39794;55.782;37.452;2023-04-12T03:07:43;35.75;;;17.75;;
53881;SDS011;39794;55.782;37.452;2023-04-12T03:10:13;36.30;;;17.73;;
53881;SDS011;39794;55.782;37.452;2023-04-12T03:12:47;32.45;;;16.70;;
53881;SDS011;39794;55.782;37.452;2023-04-12T03:15:17;37.28;;;18.00;;
53881;SDS011;39794;55.782;37.452;2023-04-12T03:17:53;37.50;;;17.85;;
53881;SDS011;39794;55.782;37.452;2023-04-12T03:20:27;40.95;;;18.20;;
53881;SDS011;39794;55.782;37.452;2023-04-12T03:23:05;32.20;;;17.63;;
53881;SDS011;39794;55.782;37.452;2023-04-12T03:25:36;40.90;;;18.65;;
53881;SDS011;39794;55.782;37.452;2023-04-12T03:28:25;32.17;;;17.70;;
53881;SDS011;39794;55.782;37.452;2023-04-12T03:30:53;38.67;;;18.48;;
53881;SDS011;39794;55.782;37.452;2023-04-12T03:33:32;52.38;;;20.33;;
53881;SDS011;39794;55.782;37.452;2023-04-12T03:36:03;46.03;;;17.25;;
53881;SDS011;39794;55.782;37.452;2023-04-12T03:38:33;36.47;;;17.48;;
53881;SDS011;39794;55.782;37.452;2023-04-12T03:41:08;35.78;;;17.88;;
53881;SDS011;39794;55.782;37.452;2023-04-12T03:43:36;45.40;;;20.48;;
53881;SDS011;39794;55.782;37.452;2023-04-12T03:46:15;38.67;;;18.73;;
53881;SDS011;39794;55.782;37.452;2023-04-12T03:48:51;32.42;;;17.27;;
53881;SDS011;39794;55.782;37.452;2023-04-12T03:51:22;45.60;;;18.35;;
53881;SDS011;39794;55.782;37.452;2023-04-12T03:53:58;39.20;;;17.02;;
53881;SDS011;39794;55.782;37.452;2023-04-12T03:56:35;37.58;;;19.30;;
53881;SDS011;39794;55.782;37.452;2023-04-12T03:59:10;40.17;;;19.30;;
53881;SDS011;39794;55.782;37.452;2023-04-12T04:01:42;40.33;;;19.38;;
53881;SDS011;39794;55.782;37.452;2023-04-12T04:04:13;42.45;;;20.15;;
53881;SDS011;39794;55.782;37.452;2023-04-12T04:06:42;37.90;;;18.45;;
53881;SDS011;39794;55.782;37.452;2023-04-12T04:09:15;43.00;;;20.27;;
53881;SDS011;39794;55.782;37.452;2023-04-12T04:11:44;41.70;;;20.02;;
53881;SDS011;39794;55.782;37.452;2023-04-12T04:14:13;35.95;;;18.60;;
53881;SDS011;39794;55.782;37.452;2023-04-12T04:16:42;43.03;;;19.08;;
53881;SDS011;39794;55.782;37.452;2023-04-12T04:19:11;44.70;;;19.45;;
53881;SDS011;39794;55.782;37.452;2023-04-12T04:21:44;36.33;;;19.02;;
53881;SDS011;39794;55.782;37.452;2023-04-12T04:24:12;40.28;;;19.30;;
53881;SDS011;39794;55.782;37.452;2023-04-12T04:26:45;48.65;;;19.88;;
53881;SDS011;39794;55.782;37.452;2023-04-12T04:29:21;46.05;;;20.30;;
53881;SDS011;39794;55.782;37.452;2023-04-12T04:31:52;39.53;;;19.77;;
53881;SDS011;39794;55.782;37.452;2023-04-12T04:34:24;45.75;;;19.90;;
53881;SDS011;39794;55.782;37.452;2023-04-12T04:37:08;49.35;;;20.75;;
53881;SDS011;39794;55.782;37.452;2023-04-12T04:39:40;44.55;;;19.30;;
53881;SDS011;39794;55.782;37.452;2023-04-12T04:42:10;45.03;;;20.80;;
53881;SDS011;39794;55.782;37.452;2023-04-12T04:44:46;50.15;;;20.30;;
53881;SDS011;39794;55.782;37.452;2023-04-12T04:47:17;56.97;;;20.48;;
53881;SDS011;39794;55.782;37.452;2023-04-12T04:49:48;43.17;;;22.00;;
53881;SDS011;39794;55.782;37.452;2023-04-12T04:52:22;53.38;;;22.15;;
53881;SDS011;39794;55.782;37.452;2023-04-12T04:54:57;52.53;;;20.58;;
53881;SDS011;39794;55.782;37.452;2023-04-12T04:57:32;42.45;;;21.17;;
53881;SDS011;39794;55.782;37.452;2023-04-12T05:00:01;40.10;;;20.92;;
53881;SDS011;39794;55.782;37.452;2023-04-12T05:02:40;51.60;;;21.27;;
53881;SDS011;39794;55.782;37.452;2023-04-12T05:05:13;40.90;;;21.33;;
53881;SDS011;39794;55.782;37.452;2023-04-12T05:07:46;46.78;;;21.48;;
53881;SDS011;39794;55.782;37.452;2023-04-12T05:10:14;51.97;;;20.98;;
53881;SDS011;39794;55.782;37.452;2023-04-12T05:12:46;53.00;;;22.98;;
53881;SDS011;39794;55.782;37.452;2023-04-12T05:15:14;37.47;;;19.95;;
53881;SDS011;39794;55.782;37.452;2023-04-12T05:17:45;42.90;;;20.45;;
53881;SDS011;39794;55.782;37.452;2023-04-12T05:20:14;38.20;;;19.63;;
53881;SDS011;39794;55.782;37.452;2023-04-12T05:22:43;37.70;;;19.92;;
53881;SDS011;39794;55.782;37.452;2023-04-12T05:25:13;33.67;;;19.08;;
53881;SDS011;39794;55.782;37.452;2023-04-12T05:27:50;42.47;;;19.55;;
53881;SDS011;39794;55.782;37.452;2023-04-12T05:30:32;37.88;;;18.38;;
53881;SDS011;39794;55.782;37.452;2023-04-12T05:33:17;32.58;;;18.73;;
53881;SDS011;39794;55.782;37.452;2023-04-12T05:36:00;37.97;;;19.17;;
53881;SDS011;39794;55.782;37.452;2023-04-12T05:38:30;38.53;;;19.42;;
53881;SDS011;39794;55.782;37.452;2023-04-12T05:41:05;33.47;;;18.20;;
53881;SDS011;39794;55.782;37.452;2023-04-12T05:43:34;36.20;;;18.48;;
53881;SDS011;39794;55.782;37.452;2023-04-12T05:46:05;35.55;;;17.92;;
53881;SDS011;39794;55.782;37.452;2023-04-12T05:48:36;38.83;;;19.27;;
53881;SDS011;39794;55.782;37.452;2023-04-12T05:51:05;41.35;;;18.15;;
53881;SDS011;39794;55.782;37.452;2023-04-12T05:53:34;36.58;;;18.73;;
53881;SDS011;39794;55.782;37.452;2023-04-12T05:56:06;34.80;;;18.58;;
53881;SDS011;39794;55.782;37.452;2023-04-12T05:58:37;38.83;;;19.02;;
53881;SDS011;39794;55.782;37.452;2023-04-12T06:01:06;37.05;;;19.17;;
53881;SDS011;39794;55.782;37.452;2023-04-12T06:03:35;35.50;;;18.02;;
53881;SDS011;39794;55.782;37.452;2023-04-12T06:06:09;33.67;;;18.10;;
53881;SDS011;39794;55.782;37.452;2023-04-12T06:08:40;32.03;;;18.15;;
53881;SDS011;39794;55.782;37.452;2023-04-12T06:11:15;38.40;;;16.60;;
53881;SDS011;39794;55.782;37.452;2023-04-12T06:13:44;32.03;;;17.60;;
53881;SDS011;39794;55.782;37.452;2023-04-12T06:16:12;40.05;;;17.25;;
53881;SDS011;39794;55.782;37.452;2023-04-12T06:18:41;35.38;;;17.77;;
53881;SDS011;39794;55.782;37.452;2023-04-12T06:21:09;32.55;;;16.98;;
53881;SDS011;39794;55.782;37.452;2023-04-12T06:23:41;35.60;;;16.85;;
53881;SDS011;39794;55.782;37.452;2023-04-12T06:26:11;33.28;;;16.17;;
53881;SDS011;39794;55.782;37.452;2023-04-12T06:28:43;37.70;;;15.50;;
53881;SDS011;39794;55.782;37.452;2023-04-12T06:31:14;30.02;;;15.05;;
53881;SDS011;39794;55.782;37.452;2023-04-12T06:33:42;27.30;;;13.80;;
53881;SDS011;39794;55.782;37.452;2023-04-12T06:36:11;33.95;;;14.63;;
53881;SDS011;39794;55.782;37.452;2023-04-12T06:38:42;31.77;;;14.98;;
53881;SDS011;39794;55.782;37.452;2023-04-12T06:41:10;36.17;;;14.05;;
53881;SDS011;39794;55.782;37.452;2023-04-12T06:43:39;26.08;;;13.85;;
53881;SDS011;39794;55.782;37.452;2023-04-12T06:46:09;28.60;;;12.50;;
53881;SDS011;39794;55.782;37.452;2023-04-12T06:48:38;20.77;;;11.82;;
53881;SDS011;39794;55.782;37.452;2023-04-12T06:51:10;24.13;;;10.75;;
53881;SDS011;39794;55.782;37.452;2023-04-12T06:53:38;27.25;;;11.35;;
53881;SDS011;39794;55.782;37.452;2023-04-12T06:56:07;23.02;;;10.90;;
53881;SDS011;39794;55.782;37.452;2023-04-12T06:58:36;21.88;;;10.98;;
53881;SDS011;39794;55.782;37.452;2023-04-12T07:01:05;34.70;;;11.00;;
53881;SDS011;39794;55.782;37.452;2023-04-12T07:03:35;18.35;;;10.32;;
53881;SDS011;39794;55.782;37.452;2023-04-12T07:06:05;20.20;;;10.95;;
53881;SDS011;39794;55.782;37.452;2023-04-12T07:11:18;19.95;;;9.85;;
53881;SDS011;39794;55.782;37.452;2023-04-12T07:13:49;28.52;;;12.35;;
53881;SDS011;39794;55.782;37.452;2023-04-12T07:16:17;27.05;;;10.98;;
53881;SDS011;39794;55.782;37.452;2023-04-12T07:18:48;20.83;;;10.25;;
53881;SDS011;39794;55.782;37.452;2023-04-12T07:21:16;17.92;;;9.65;;
53881;SDS011;39794;55.782;37.452;2023-04-12T07:23:45;21.00;;;10.13;;
53881;SDS011;39794;55.782;37.452;2023-04-12T07:26:17;26.08;;;10.15;;
53881;SDS011;39794;55.782;37.452;2023-04-12T07:28:45;21.85;;;9.98;;
53881;SDS011;39794;55.782;37.452;2023-04-12T07:31:17;17.25;;;9.77;;
53881;SDS011;39794;55.782;37.452;2023-04-12T07:33:45;20.95;;;9.70;;
53881;SDS011;39794;55.782;37.452;2023-04-12T07:36:17;19.83;;;10.18;;
53881;SDS011;39794;55.782;37.452;2023-04-12T07:38:48;20.67;;;10.13;;
53881;SDS011;39794;55.782;37.452;2023-04-12T07:41:21;27.43;;;10.80;;
53881;SDS011;39794;55.782;37.452;2023-04-12T07:43:51;18.20;;;10.00;;
53881;SDS011;39794;55.782;37.452;2023-04-12T07:46:21;22.88;;;11.30;;
53881;SDS011;39794;55.782;37.452;2023-04-12T07:48:50;23.33;;;10.90;;
53881;SDS011;39794;55.782;37.452;2023-04-12T07:51:20;20.23;;;11.50;;
53881;SDS011;39794;55.782;37.452;2023-04-12T07:53:51;16.75;;;11.02;;
53881;SDS011;39794;55.782;37.452;2023-04-12T07:56:20;19.17;;;11.20;;
53881;SDS011;39794;55.782;37.452;2023-04-12T07:58:48;17.85;;;11.40;;
53881;SDS011;39794;55.782;37.452;2023-04-12T08:01:19;21.85;;;12.65;;
53881;SDS011;39794;55.782;37.452;2023-04-12T08:03:49;22.35;;;12.18;;
53881;SDS011;39794;55.782;37.452;2023-04-12T08:06:18;24.15;;;12.88;;
53881;SDS011;39794;55.782;37.452;2023-04-12T08:08:48;18.83;;;11.77;;
53881;SDS011;39794;55.782;37.452;2023-04-12T08:11:17;21.20;;;12.50;;
53881;SDS011;39794;55.782;37.452;2023-04-12T08:13:48;19.65;;;12.05;;
53881;SDS011;39794;55.782;37.452;2023-04-12T08:16:17;19.42;;;10.68;;
53881;SDS011;39794;55.782;37.452;2023-04-12T08:18:47;15.02;;;10.80;;
53881;SDS011;39794;55.782;37.452;2023-04-12T08:21:18;23.17;;;10.82;;
53881;SDS011;39794;55.782;37.452;2023-04-12T08:23:49;16.70;;;11.15;;
53881;SDS011;39794;55.782;37.452;2023-04-12T08:26:17;17.55;;;11.45;;
53881;SDS011;39794;55.782;37.452;2023-04-12T08:28:47;20.83;;;11.65;;
53881;SDS011;39794;55.782;37.452;2023-04-12T08:31:16;21.33;;;11.90;;
53881;SDS011;39794;55.782;37.452;2023-04-12T08:33:47;20.83;;;10.95;;
53881;SDS011;39794;55.782;37.452;2023-04-12T08:36:17;23.25;;;12.23;;
53881;SDS011;39794;55.782;37.452;2023-04-12T08:38:45;12.88;;;7.93;;
53881;SDS011;39794;55.782;37.452;2023-04-12T08:41:19;18.15;;;9.63;;
53881;SDS011;39794;55.782;37.452;2023-04-12T08:43:48;12.52;;;8.00;;
53881;SDS011;39794;55.782;37.452;2023-04-12T08:46:21;15.30;;;8.77;;
53881;SDS011;39794;55.782;37.452;2023-04-12T08:48:51;15.32;;;9.25;;
53881;SDS011;39794;55.782;37.452;2023-04-12T08:51:21;11.77;;;7.72;;
53881;SDS011;39794;55.782;37.452;2023-04-12T08:53:50;13.25;;;8.23;;
53881;SDS011;39794;55.782;37.452;2023-04-12T08:56:21;13.40;;;7.93;;
53881;SDS011;39794;55.782;37.452;2023-04-12T08:58:51;15.00;;;7.38;;
53881;SDS011;39794;55.782;37.452;2023-04-12T09:01:26;16.83;;;9.05;;
53881;SDS011;39794;55.782;37.452;2023-04-12T09:03:55;11.90;;;7.78;;
53881;SDS011;39794;55.782;37.452;2023-04-12T09:06:24;11.82;;;7.75;;
53881;SDS011;39794;55.782;37.452;2023-04-12T09:08:53;12.05;;;7.30;;
53881;SDS011;39794;55.782;37.452;2023-04-12T09:11:25;13.32;;;6.80;;
53881;SDS011;39794;55.782;37.452;2023-04-12T09:13:55;15.35;;;7.70;;
53881;SDS011;39794;55.782;37.452;2023-04-12T09:16:34;12.63;;;7.47;;
53881;SDS011;39794;55.782;37.452;2023-04-12T09:19:04;12.40;;;7.60;;
53881;SDS011;39794;55.782;37.452;2023-04-12T09:21:36;12.77;;;7.45;;
53881;SDS011;39794;55.782;37.452;2023-04-12T09:24:05;17.95;;;8.50;;
53881;SDS011;39794;55.782;37.452;2023-04-12T09:26:41;15.50;;;7.28;;
53881;SDS011;39794;55.782;37.452;2023-04-12T09:29:20;25.42;;;8.20;;
53881;SDS011;39794;55.782;37.452;2023-04-12T09:31:54;12.73;;;7.63;;
53881;SDS011;39794;55.782;37.452;2023-04-12T09:34:24;13.18;;;7.28;;
53881;SDS011;39794;55.782;37.452;2023-04-12T09:36:53;10.35;;;7.65;;
53881;SDS011;39794;55.782;37.452;2023-04-12T09:39:29;9.88;;;7.38;;
53881;SDS011;39794;55.782;37.452;2023-04-12T09:42:09;9.75;;;7.70;;
53881;SDS011;39794;55.782;37.452;2023-04-12T09:44:59;13.88;;;7.57;;
53881;SDS011;39794;55.782;37.452;2023-04-12T09:47:35;13.68;;;7.53;;
53881;SDS011;39794;55.782;37.452;2023-04-12T09:50:09;15.48;;;8.10;;
53881;SDS011;39794;55.782;37.452;2023-04-12T09:52:52;15.18;;;8.73;;
53881;SDS011;39794;55.782;37.452;2023-04-12T09:55:30;15.88;;;9.30;;
53881;SDS011;39794;55.782;37.452;2023-04-12T09:58:06;14.10;;;9.27;;
53881;SDS011;39794;55.782;37.452;2023-04-12T10:00:39;13.85;;;9.15;;
53881;SDS011;39794;55.782;37.452;2023-04-12T10:03:10;16.70;;;8.75;;
53881;SDS011;39794;55.782;37.452;2023-04-12T10:05:40;19.98;;;10.00;;
53881;SDS011;39794;55.782;37.452;2023-04-12T10:08:10;18.25;;;9.75;;
53881;SDS011;39794;55.782;37.452;2023-04-12T10:10:38;11.52;;;7.82;;
53881;SDS011;39794;55.782;37.452;2023-04-12T10:13:08;16.25;;;8.35;;
53881;SDS011;39794;55.782;37.452;2023-04-12T10:15:42;14.90;;;9.05;;
53881;SDS011;39794;55.782;37.452;2023-04-12T10:18:13;19.73;;;9.13;;
53881;SDS011;39794;55.782;37.452;2023-04-12T10:20:44;13.10;;;7.60;;
53881;SDS011;39794;55.782;37.452;2023-04-12T10:23:16;16.00;;;8.05;;
53881;SDS011;39794;55.782;37.452;2023-04-12T10:25:45;11.68;;;7.50;;
53881;SDS011;39794;55.782;37.452;2023-04-12T10:28:17;13.73;;;7.57;;
53881;SDS011;39794;55.782;37.452;2023-04-12T10:30:49;12.68;;;8.13;;
53881;SDS011;39794;55.782;37.452;2023-04-12T10:33:29;12.95;;;7.32;;
53881;SDS011;39794;55.782;37.452;2023-04-12T10:36:03;12.27;;;7.65;;
53881;SDS011;39794;55.782;37.452;2023-04-12T10:38:43;12.30;;;7.57;;
53881;SDS011;39794;55.782;37.452;2023-04-12T10:41:16;14.00;;;7.80;;
53881;SDS011;39794;55.782;37.452;2023-04-12T10:43:47;11.73;;;6.72;;
53881;SDS011;39794;55.782;37.452;2023-04-12T10:49:15;10.60;;;7.07;;
53881;SDS011;39794;55.782;37.452;2023-04-12T10:54:39;12.93;;;7.20;;
53881;SDS011;39794;55.782;37.452;2023-04-12T11:00:15;14.07;;;7.18;;
53881;SDS011;39794;55.782;37.452;2023-04-12T11:09:06;10.15;;;7.15;;
53881;SDS011;39794;55.782;37.452;2023-04-12T11:11:44;8.68;;;7.13;;
53881;SDS011;39794;55.782;37.452;2023-04-12T11:14:13;12.40;;;6.07;;
53881;SDS011;39794;55.782;37.452;2023-04-12T11:19:51;7.40;;;5.55;;
53881;SDS011;39794;55.782;37.452;2023-04-12T11:22:25;10.88;;;7.68;;
53881;SDS011;39794;55.782;37.452;2023-04-12T11:24:56;13.00;;;7.38;;
53881;SDS011;39794;55.782;37.452;2023-04-12T11:27:25;16.95;;;7.47;;
53881;SDS011;39794;55.782;37.452;2023-04-12T11:29:55;10.60;;;7.40;;
53881;SDS011;39794;55.782;37.452;2023-04-12T11:32:27;9.23;;;7.10;;
53881;SDS011;39794;55.782;37.452;2023-04-12T11:34:57;15.52;;;7.50;;
53881;SDS011;39794;55.782;37.452;2023-04-12T11:37:30;13.35;;;6.70;;
53881;SDS011;39794;55.782;37.452;2023-04-12T11:39:59;11.88;;;7.60;;
53881;SDS011;39794;55.782;37.452;2023-04-12T11:42:28;12.07;;;6.90;;
53881;SDS011;39794;55.782;37.452;2023-04-12T11:44:57;19.33;;;7.22;;
53881;SDS011;39794;55.782;37.452;2023-04-12T11:47:42;12.77;;;8.40;;
53881;SDS011;39794;55.782;37.452;2023-04-12T11:50:11;12.38;;;7.55;;
53881;SDS011;39794;55.782;37.452;2023-04-12T11:52:39;12.30;;;7.70;;
53881;SDS011;39794;55.782;37.452;2023-04-12T11:55:08;13.70;;;6.55;;
53881;SDS011;39794;55.782;37.452;2023-04-12T11:57:38;11.07;;;7.85;;
53881;SDS011;39794;55.782;37.452;2023-04-12T12:00:07;10.77;;;7.22;;
53881;SDS011;39794;55.782;37.452;2023-04-12T12:02:42;13.10;;;7.28;;
53881;SDS011;39794;55.782;37.452;2023-04-12T12:05:30;12.15;;;7.10;;
53881;SDS011;39794;55.782;37.452;2023-04-12T12:08:03;11.90;;;7.05;;
53881;SDS011;39794;55.782;37.452;2023-04-12T12:10:34;15.80;;;6.95;;
53881;SDS011;39794;55.782;37.452;2023-04-12T12:13:17;14.43;;;7.80;;
53881;SDS011;39794;55.782;37.452;2023-04-12T12:15:50;14.45;;;7.22;;
53881;SDS011;39794;55.782;37.452;2023-04-12T12:18:25;12.02;;;7.35;;
53881;SDS011;39794;55.782;37.452;2023-04-12T12:20:55;9.93;;;7.25;;
53881;SDS011;39794;55.782;37.452;2023-04-12T12:23:27;16.88;;;6.88;;
53881;SDS011;39794;55.782;37.452;2023-04-12T12:25:57;9.65;;;7.13;;
53881;SDS011;39794;55.782;37.452;2023-04-12T12:28:48;13.38;;;7.30;;
53881;SDS011;39794;55.782;37.452;2023-04-12T12:31:18;16.58;;;7.22;;
53881;SDS011;39794;55.782;37.452;2023-04-12T12:33:52;14.52;;;7.78;;
53881;SDS011;39794;55.782;37.452;2023-04-12T12:36:29;11.57;;;7.05;;
53881;SDS011;39794;55.782;37.452;2023-04-12T12:39:02;18.23;;;7.68;;
53881;SDS011;39794;55.782;37.452;2023-04-12T12:41:33;13.93;;;7.00;;
53881;SDS011;39794;55.782;37.452;2023-04-12T12:44:02;11.45;;;7.50;;
53881;SDS011;39794;55.782;37.452;2023-04-12T12:46:31;12.93;;;7.05;;
53881;SDS011;39794;55.782;37.452;2023-04-12T12:49:04;12.27;;;6.60;;
53881;SDS011;39794;55.782;37.452;2023-04-12T12:51:32;10.38;;;6.18;;
53881;SDS011;39794;55.782;37.452;2023-04-12T12:54:04;12.52;;;6.88;;
53881;SDS011;39794;55.782;37.452;2023-04-12T12:56:33;14.02;;;6.93;;
53881;SDS011;39794;55.782;37.452;2023-04-12T12:59:02;15.50;;;7.68;;
53881;SDS011;39794;55.782;37.452;2023-04-12T13:01:31;66.45;;;11.18;;
53881;SDS011;39794;55.782;37.452;2023-04-12T13:03:59;46.67;;;9.23;;
53881;SDS011;39794;55.782;37.452;2023-04-12T13:06:30;18.15;;;7.25;;
53881;SDS011;39794;55.782;37.452;2023-04-12T13:08:58;17.27;;;7.45;;
53881;SDS011;39794;55.782;37.452;2023-04-12T13:11:28;11.38;;;6.65;;
53881;SDS011;39794;55.782;37.452;2023-04-12T13:13:58;15.60;;;6.90;;
53881;SDS011;39794;55.782;37.452;2023-04-12T13:16:26;16.88;;;7.63;;
53881;SDS011;39794;55.782;37.452;2023-04-12T13:18:55;13.35;;;6.50;;
53881;SDS011;39794;55.782;37.452;2023-04-12T13:21:24;11.70;;;6.55;;
53881;SDS011;39794;55.782;37.452;2023-04-12T13:23:54;12.68;;;6.88;;
53881;SDS011;39794;55.782;37.452;2023-04-12T13:26:22;13.40;;;6.50;;
53881;SDS011;39794;55.782;37.452;2023-04-12T13:28:51;12.18;;;5.32;;
53881;SDS011;39794;55.782;37.452;2023-04-12T13:31:20;9.18;;;5.15;;
53881;SDS011;39794;55.782;37.452;2023-04-12T13:33:49;9.80;;;6.18;;
53881;SDS011;39794;55.782;37.452;2023-04-12T13:36:18;9.77;;;6.30;;
53881;SDS011;39794;55.782;37.452;2023-04-12T13:38:46;12.65;;;6.65;;
53881;SDS011;39794;55.782;37.452;2023-04-12T13:41:16;12.63;;;6.80;;
53881;SDS011;39794;55.782;37.452;2023-04-12T13:43:45;12.30;;;6.25;;
53881;SDS011;39794;55.782;37.452;2023-04-12T13:46:16;13.45;;;6.47;;
53881;SDS011;39794;55.782;37.452;2023-04-12T13:48:45;11.38;;;5.88;;
53881;SDS011;39794;55.782;37.452;2023-04-12T13:51:13;13.10;;;6.55;;
53881;SDS011;39794;55.782;37.452;2023-04-12T13:53:42;15.38;;;6.25;;
53881;SDS011;39794;55.782;37.452;2023-04-12T13:56:11;12.77;;;6.40;;
53881;SDS011;39794;55.782;37.452;2023-04-12T13:58:45;12.85;;;6.00;;
53881;SDS011;39794;55.782;37.452;2023-04-12T14:01:14;18.98;;;6.60;;
53881;SDS011;39794;55.782;37.452;2023-04-12T14:03:42;12.70;;;5.70;;
53881;SDS011;39794;55.782;37.452;2023-04-12T14:06:11;9.88;;;5.75;;
53881;SDS011;39794;55.782;37.452;2023-04-12T14:08:41;11.40;;;6.50;;
53881;SDS011;39794;55.782;37.452;2023-04-12T14:11:12;12.57;;;6.07;;
53881;SDS011;39794;55.782;37.452;2023-04-12T14:13:42;10.23;;;6.20;;
53881;SDS011;39794;55.782;37.452;2023-04-12T14:16:13;11.45;;;6.38;;
53881;SDS011;39794;55.782;37.452;2023-04-12T14:18:44;9.73;;;6.00;;
53881;SDS011;39794;55.782;37.452;2023-04-12T14:21:13;10.85;;;5.88;;
53881;SDS011;39794;55.782;37.452;2023-04-12T14:23:45;9.68;;;5.97;;
53881;SDS011;39794;55.782;37.452;2023-04-12T14:26:14;10.52;;;5.82;;
53881;SDS011;39794;55.782;37.452;2023-04-12T14:28:44;10.75;;;7.22;;
53881;SDS011;39794;55.782;37.452;2023-04-12T14:31:16;11.85;;;6.30;;
53881;SDS011;39794;55.782;37.452;2023-04-12T14:33:44;12.57;;;6.25;;
53881;SDS011;39794;55.782;37.452;2023-04-12T14:36:13;14.85;;;6.90;;
53881;SDS011;39794;55.782;37.452;2023-04-12T14:38:43;12.90;;;7.00;;
53881;SDS011;39794;55.782;37.452;2023-04-12T14:41:12;12.85;;;6.60;;
53881;SDS011;39794;55.782;37.452;2023-04-12T14:43:41;11.55;;;5.93;;
53881;SDS011;39794;55.782;37.452;2023-04-12T14:46:11;16.25;;;7.22;;
53881;SDS011;39794;55.782;37.452;2023-04-12T14:48:41;12.52;;;6.90;;
53881;SDS011;39794;55.782;37.452;2023-04-12T14:51:11;16.30;;;6.97;;
53881;SDS011;39794;55.782;37.452;2023-04-12T14:53:41;11.48;;;7.15;;
53881;SDS011;39794;55.782;37.452;2023-04-12T14:56:18;15.70;;;6.60;;
53881;SDS011;39794;55.782;37.452;2023-04-12T14:58:51;11.30;;;6.60;;